Time;durP1;ratioP1;P1;durP2;ratioP2;P2;SDS_P1;SDS_P2;PMS_P1;PMS_P2;Temp;Humidity;BMP_temperature;BMP_pressure;BME280_temperature;BME280_humidity;BME280_pressure;Samples;Min_cycle;Max_cycle;Signal;HPM_P1;HPM_P2
2022/07/28 00:00:29;;;;;;;5.72;1.48;;;;;;;14.44;79.48;101792.34;5261702;28;20479;-67
2022/07/28 00:03:00;;;;;;;3.42;1.45;;;;;;;14.51;80.55;101789.06;5255473;28;20568;-68
2022/07/28 00:05:31;;;;;;;4.75;1.58;;;;;;;14.44;79.85;101781.63;5251272;28;20040;-67
2022/07/28 00:08:04;;;;;;;4.70;1.55;;;;;;;14.39;80.44;101783.81;5264092;28;20036;-68
2022/07/28 00:10:35;;;;;;;3.17;1.20;;;;;;;14.38;80.83;101785.66;5257597;28;20054;-67
2022/07/28 00:13:07;;;;;;;6.40;1.70;;;;;;;14.26;78.88;101784.75;5252998;28;20025;-67
2022/07/28 00:15:39;;;;;;;5.88;1.60;;;;;;;14.24;79.70;101785.84;5256530;28;20043;-68
2022/07/28 00:18:10;;;;;;;6.88;1.88;;;;;;;14.15;78.52;101783.88;5256180;28;20047;-67
2022/07/28 00:20:41;;;;;;;6.68;1.73;;;;;;;14.17;79.98;101788.19;5254131;28;20876;-67
2022/07/28 00:23:12;;;;;;;9.60;1.80;;;;;;;14.07;80.00;101796.03;5250422;28;20035;-67
2022/07/28 00:25:44;;;;;;;5.57;1.70;;;;;;;14.06;79.53;101788.97;5252747;28;20509;-68
2022/07/28 00:28:15;;;;;;;6.35;2.05;;;;;;;13.97;79.70;101784.31;5254194;28;20055;-67
2022/07/28 00:30:46;;;;;;;5.20;1.90;;;;;;;14.05;80.79;101783.72;5250910;28;20090;-67
2022/07/28 00:33:17;;;;;;;6.75;1.80;;;;;;;14.05;83.38;101786.41;5255595;28;20107;-68
2022/07/28 00:35:49;;;;;;;5.28;1.40;;;;;;;14.00;81.39;101776.03;5250053;28;20751;-67
2022/07/28 00:38:20;;;;;;;4.65;1.73;;;;;;;13.83;80.91;101788.03;5259485;28;20604;-67
2022/07/28 00:41:09;;;;;;;4.53;1.60;;;;;;;13.83;81.83;101781.81;5257742;28;20086;-67
2022/07/28 00:43:43;;;;;;;6.50;1.77;;;;;;;13.88;82.75;101785.00;5261693;28;20044;-67
2022/07/28 00:46:17;;;;;;;5.78;1.60;;;;;;;13.81;81.99;101781.94;5253904;28;20510;-67
2022/07/28 00:48:51;;;;;;;4.15;1.55;;;;;;;13.84;85.20;101784.38;5259665;28;20039;-67
2022/07/28 00:51:26;;;;;;;4.47;1.48;;;;;;;13.75;82.24;101779.72;5256288;28;20033;-67
2022/07/28 00:53:57;;;;;;;5.22;1.85;;;;;;;13.76;82.43;101772.53;5261140;28;20024;-67
2022/07/28 00:56:30;;;;;;;5.22;1.70;;;;;;;13.80;84.73;101760.59;5255527;28;20483;-67
2022/07/28 00:59:02;;;;;;;6.82;1.70;;;;;;;13.78;84.17;101763.38;5254602;28;20647;-67
2022/07/28 01:01:33;;;;;;;3.65;1.70;;;;;;;13.65;84.07;101766.16;5257083;28;20036;-65
2022/07/28 01:04:04;;;;;;;6.25;1.55;;;;;;;13.55;82.68;101769.63;5257591;28;20445;-67
2022/07/28 01:06:48;;;;;;;4.78;2.00;;;;;;;13.51;82.97;101775.19;5254226;28;20056;-67
2022/07/28 01:09:33;;;;;;;5.65;2.20;;;;;;;13.47;84.36;101768.34;5263881;28;20028;-67
2022/07/28 01:12:15;;;;;;;8.15;1.70;;;;;;;13.48;84.09;101771.88;5258085;28;20053;-67
2022/07/28 01:15:04;;;;;;;9.98;2.13;;;;;;;13.38;84.49;101771.72;5253132;28;20043;-67
2022/07/28 01:17:47;;;;;;;4.80;1.85;;;;;;;13.36;86.29;101772.81;5254867;28;20075;-67
2022/07/28 01:20:28;;;;;;;3.55;1.88;;;;;;;13.27;86.04;101763.56;5264001;28;20418;-67
2022/07/28 01:23:08;;;;;;;6.90;1.80;;;;;;;13.29;86.62;101757.16;5260992;28;20094;-67
2022/07/28 01:26:11;;;;;;;3.13;1.60;;;;;;;13.25;87.00;101758.34;5261225;28;20028;-67
2022/07/28 01:28:42;;;;;;;5.72;2.00;;;;;;;13.25;88.12;101755.66;5265084;28;20110;-67
2022/07/28 01:31:20;;;;;;;6.25;2.00;;;;;;;13.27;87.81;101763.56;5263163;28;20035;-68
2022/07/28 01:33:58;;;;;;;6.57;2.20;;;;;;;13.16;86.94;101767.06;5257463;28;20025;-67
2022/07/28 01:36:39;;;;;;;8.77;2.08;;;;;;;13.14;87.20;101751.06;5258844;28;21542;-67
2022/07/28 01:39:12;;;;;;;4.60;2.00;;;;;;;13.05;86.05;101761.59;5257305;28;20033;-67
2022/07/28 01:41:45;;;;;;;2.97;1.60;;;;;;;13.04;86.20;101757.19;5259891;28;20089;-68
2022/07/28 01:44:21;;;;;;;4.65;1.73;;;;;;;13.10;88.45;101743.38;5260132;28;20684;-67
2022/07/28 01:46:56;;;;;;;6.43;1.95;;;;;;;12.91;86.47;101741.19;5255742;28;20032;-68
2022/07/28 01:49:29;;;;;;;5.53;2.03;;;;;;;12.97;86.86;101748.78;5255504;28;20029;-67
2022/07/28 01:52:05;;;;;;;4.25;1.85;;;;;;;12.85;86.46;101741.63;5265619;28;20078;-68
2022/07/28 01:54:41;;;;;;;5.53;1.77;;;;;;;12.88;88.43;101744.06;5259389;28;20025;-67
2022/07/28 01:57:13;;;;;;;5.55;2.45;;;;;;;12.91;89.44;101746.53;5251251;28;20060;-67
2022/07/28 01:59:47;;;;;;;6.03;1.90;;;;;;;12.93;88.76;101733.88;5257414;28;20485;-67
2022/07/28 02:02:20;;;;;;;6.43;2.25;;;;;;;12.79;87.50;101732.22;5262470;28;20494;-67
2022/07/28 02:04:54;;;;;;;4.82;2.10;;;;;;;12.75;87.52;101728.91;5267437;28;20025;-68
2022/07/28 02:07:27;;;;;;;4.05;1.88;;;;;;;12.87;89.08;101732.50;5261006;28;20371;-67
2022/07/28 02:10:00;;;;;;;5.30;2.10;;;;;;;12.84;89.69;101724.69;5256142;28;20420;-67
2022/07/28 02:12:34;;;;;;;5.95;2.38;;;;;;;12.92;91.56;101732.16;5265713;28;20031;-67
2022/07/28 02:15:08;;;;;;;;;;;;;;;12.91;87.76;101731.31;5267056;28;20098;-67
2022/07/28 02:17:42;;;;;;;5.22;2.08;;;;;;;12.75;87.83;101726.22;5266075;28;19916;-67
2022/07/28 02:20:16;;;;;;;4.95;2.28;;;;;;;12.68;88.30;101722.25;5269691;28;20488;-67
2022/07/28 02:22:49;;;;;;;6.50;2.40;;;;;;;12.73;89.75;101724.59;5265823;28;20037;-67
2022/07/28 02:25:21;;;;;;;4.25;1.73;;;;;;;12.55;88.29;101722.25;5269694;28;20052;-67
2022/07/28 02:27:56;;;;;;;5.20;2.88;;;;;;;12.62;89.93;101721.81;5257154;28;20033;-67
2022/07/28 02:30:36;;;;;;;5.32;2.28;;;;;;;12.57;88.22;101721.31;5252558;28;20533;-67
2022/07/28 02:33:15;;;;;;;7.13;2.60;;;;;;;12.64;91.14;101723.44;5250341;28;20927;-67
2022/07/28 02:36:05;;;;;;;4.97;2.17;;;;;;;12.62;90.57;101720.03;5257819;28;20029;-67
2022/07/28 02:38:40;;;;;;;5.45;2.30;;;;;;;12.50;90.72;101726.22;5257450;28;20061;-67
2022/07/28 02:41:25;;;;;;;6.85;2.30;;;;;;;12.61;91.12;101725.47;5258794;28;20024;-67
2022/07/28 02:44:00;;;;;;;6.22;2.50;;;;;;;12.61;92.12;101720.97;5259270;28;20070;-67
2022/07/28 02:46:41;;;;;;;4.15;2.00;;;;;;;12.61;91.38;101723.66;5249709;28;20402;-67
2022/07/28 02:49:18;;;;;;;4.82;2.15;;;;;;;12.45;90.96;101718.53;5252895;28;20033;-67
2022/07/28 02:51:51;;;;;;;4.07;2.15;;;;;;;12.57;91.43;101721.31;5251209;28;20371;-67
2022/07/28 02:54:26;;;;;;;4.68;2.40;;;;;;;12.45;90.98;101725.72;5262189;28;20545;-67
2022/07/28 02:56:58;;;;;;;6.80;2.55;;;;;;;12.45;91.18;101728.41;5249064;28;20632;-67
2022/07/28 02:59:31;;;;;;;7.22;2.55;;;;;;;12.44;91.67;101726.66;5254653;28;20098;-67
2022/07/28 03:02:04;;;;;;;6.50;2.22;;;;;;;12.45;92.50;101723.88;5253425;28;20028;-67
2022/07/28 03:07:30;;;;;;;8.38;2.50;;;;;;;12.29;91.23;101717.88;5259315;28;20029;-67
2022/07/28 03:10:02;;;;;;;7.13;2.50;;;;;;;12.29;90.92;101716.09;5263983;28;20032;-67
2022/07/28 03:12:34;;;;;;;4.68;2.35;;;;;;;12.31;93.17;101714.16;5255834;28;20214;-67
2022/07/28 03:15:06;;;;;;;6.78;2.42;;;;;;;12.23;90.99;101719.16;5252322;28;21128;-67
2022/07/28 03:17:37;;;;;;;7.22;2.70;;;;;;;12.08;90.90;101728.25;5258450;28;20029;-67
2022/07/28 03:20:10;;;;;;;5.43;2.35;;;;;;;12.05;90.38;101725.81;5268988;28;20024;-67
2022/07/28 03:22:41;;;;;;;6.00;2.60;;;;;;;12.06;90.80;101720.34;5257746;28;20051;-67
2022/07/28 03:25:37;;;;;;;5.35;2.60;;;;;;;12.13;92.89;101726.13;5253053;28;20029;-67
2022/07/28 03:28:13;;;;;;;9.57;3.88;;;;;;;11.99;93.18;101723.56;5258649;28;20368;-67
2022/07/28 03:31:06;;;;;;;5.90;2.42;;;;;;;11.95;92.97;101718.41;5253135;28;20033;-67
2022/07/28 03:33:38;;;;;;;4.70;2.58;;;;;;;11.83;92.23;101718.34;5254306;28;20032;-67
2022/07/28 03:36:14;;;;;;;5.10;2.35;;;;;;;11.75;90.69;101722.41;5254870;28;21528;-67
2022/07/28 03:38:52;;;;;;;4.75;2.58;;;;;;;11.84;92.53;101723.59;5260950;28;20024;-67
2022/07/28 03:41:25;;;;;;;6.22;2.60;;;;;;;11.83;93.20;101724.56;5256862;28;20024;-67
2022/07/28 03:43:57;;;;;;;7.60;2.72;;;;;;;11.76;93.44;101723.25;5252432;28;20487;-67
2022/07/28 03:46:29;;;;;;;5.53;2.63;;;;;;;11.88;93.88;101718.91;5251314;28;20055;-67
2022/07/28 03:49:00;;;;;;;8.40;2.90;;;;;;;11.84;94.49;101717.41;5255131;28;20031;-67
2022/07/28 03:51:31;;;;;;;5.35;2.30;;;;;;;11.66;92.65;101727.50;5252896;28;20029;-67
2022/07/28 03:54:03;;;;;;;6.53;2.35;;;;;;;11.68;93.65;101713.09;5249820;28;20021;-67
2022/07/28 03:56:34;;;;;;;5.25;2.30;;;;;;;11.67;92.68;101722.06;5252016;28;20031;-68
2022/07/28 03:59:05;;;;;;;5.03;2.00;;;;;;;11.75;94.42;101710.84;5249756;28;20039;-67
2022/07/28 04:01:37;;;;;;;5.38;2.70;;;;;;;11.77;94.33;101716.94;5257388;28;20020;-67
2022/07/28 04:04:08;;;;;;;5.80;2.30;;;;;;;11.74;94.09;101722.50;5255558;28;20044;-67
2022/07/28 04:06:39;;;;;;;6.78;2.38;;;;;;;11.69;94.72;101713.94;5253917;28;20021;-67
2022/07/28 04:09:10;;;;;;;6.75;2.40;;;;;;;11.67;93.25;101722.06;5261976;28;20105;-67
2022/07/28 04:11:42;;;;;;;8.68;2.88;;;;;;;11.67;91.99;101724.72;5260473;28;20119;-67
2022/07/28 04:14:15;;;;;;;7.13;2.50;;;;;;;11.57;92.98;101721.81;5250333;28;20021;-67
2022/07/28 04:16:47;;;;;;;5.35;2.85;;;;;;;11.56;92.83;101719.25;5250204;28;20136;-67
2022/07/28 04:19:18;;;;;;;7.97;2.50;;;;;;;11.52;93.04;101721.25;5252653;28;20106;-67
2022/07/28 04:21:49;;;;;;;6.85;2.40;;;;;;;11.50;91.40;101720.50;5259414;28;20060;-67
2022/07/28 04:24:21;;;;;;;5.68;2.50;;;;;;;11.58;93.01;101720.00;5250194;28;20025;-67
2022/07/28 04:26:52;;;;;;;5.55;2.72;;;;;;;11.68;95.60;101717.59;5261535;28;20556;-67
2022/07/28 04:29:23;;;;;;;6.72;2.40;;;;;;;11.58;92.84;101720.88;5258626;28;20032;-67
2022/07/28 04:31:54;;;;;;;5.43;2.63;;;;;;;11.57;91.87;101718.28;5251268;28;20053;-67
2022/07/28 04:34:26;;;;;;;8.23;2.78;;;;;;;11.65;93.74;101713.28;5251174;28;20021;-67
2022/07/28 04:36:58;;;;;;;4.93;2.47;;;;;;;11.58;92.37;101720.88;5258007;28;20107;-67
2022/07/28 04:39:29;;;;;;;5.90;2.55;;;;;;;11.55;92.13;101725.56;5256211;28;20510;-68
2022/07/28 04:42:01;;;;;;;5.80;2.55;;;;;;;11.66;93.46;101720.34;5258202;28;20040;-67
2022/07/28 04:44:33;;;;;;;5.03;2.70;;;;;;;11.63;94.03;101719.69;5250275;28;20032;-67
2022/07/28 04:47:04;;;;;;;7.00;2.92;;;;;;;11.70;92.81;101716.50;5252174;28;20028;-67
2022/07/28 04:49:35;;;;;;;6.25;3.08;;;;;;;11.71;93.53;101714.69;5248012;28;20044;-67
2022/07/28 04:52:07;;;;;;;4.85;2.70;;;;;;;11.69;94.54;101719.28;5249534;28;20040;-67
2022/07/28 04:54:38;;;;;;;5.95;3.10;;;;;;;11.72;95.06;101717.25;5257940;28;20090;-67
2022/07/28 04:57:10;;;;;;;8.13;2.90;;;;;;;11.68;93.50;101713.09;5259477;28;20048;-67
2022/07/28 04:59:42;;;;;;;10.20;2.83;;;;;;;11.65;92.13;101715.09;5294841;28;20425;-67
2022/07/28 05:02:13;;;;;;;9.88;3.42;;;;;;;11.72;92.79;101716.41;5260738;28;20157;-67
2022/07/28 05:04:44;;;;;;;7.00;2.90;;;;;;;11.76;94.22;101715.25;5260720;28;20032;-67
2022/07/28 05:07:15;;;;;;;8.70;3.05;;;;;;;11.75;92.33;101713.53;5260476;28;20077;-67
2022/07/28 05:09:47;;;;;;;8.82;2.97;;;;;;;11.73;92.92;101712.75;5265471;28;20052;-67
2022/07/28 05:12:18;;;;;;;6.45;2.83;;;;;;;11.76;92.19;101713.41;5272252;28;20021;-67
2022/07/28 05:14:49;;;;;;;6.35;2.80;;;;;;;11.84;93.65;101717.41;5259771;28;20032;-67
2022/07/28 05:17:20;;;;;;;6.30;2.95;;;;;;;11.88;95.03;101730.44;5259193;28;20120;-67
2022/07/28 05:19:52;;;;;;;6.00;2.90;;;;;;;11.80;93.33;101723.91;5265691;28;20024;-67
2022/07/28 05:22:23;;;;;;;6.10;2.90;;;;;;;11.80;92.78;101721.25;5260748;28;20083;-67
2022/07/28 05:24:55;;;;;;;7.22;2.80;;;;;;;11.93;95.11;101723.00;5251325;28;20024;-67
2022/07/28 05:27:26;;;;;;;5.85;3.22;;;;;;;11.89;93.47;101725.94;5268131;28;20111;-67
2022/07/28 05:29:57;;;;;;;8.32;3.05;;;;;;;11.95;94.06;101723.75;5266984;28;20029;-67
2022/07/28 05:32:28;;;;;;;9.85;3.10;;;;;;;12.00;93.48;101717.22;5268448;28;20115;-67
2022/07/28 05:35:00;;;;;;;6.82;2.95;;;;;;;12.07;93.52;101726.56;5258124;28;20466;-67
2022/07/28 05:37:33;;;;;;;6.90;3.08;;;;;;;12.24;93.68;101728.91;5267013;28;20471;-67
2022/07/28 05:40:13;;;;;;;6.93;3.00;;;;;;;12.27;92.74;101725.16;5270082;28;20497;-67
2022/07/28 05:42:46;;;;;;;5.50;2.92;;;;;;;12.38;91.65;101721.75;5262337;28;20121;-67
2022/07/28 05:45:17;;;;;;;5.32;2.67;;;;;;;12.58;92.42;101721.22;5265607;28;20064;-67
2022/07/28 05:47:51;;;;;;;10.52;3.10;;;;;;;12.68;90.50;101732.13;5266546;28;20206;-67
2022/07/28 05:50:24;;;;;;;6.55;2.95;;;;;;;12.88;91.36;101723.50;5262875;28;20029;-67
2022/07/28 05:52:55;;;;;;;7.68;3.22;;;;;;;13.08;90.66;101724.75;5260741;28;20075;-67
2022/07/28 05:55:26;;;;;;;6.65;2.80;;;;;;;13.20;89.94;101714.94;5255493;28;20523;-67
2022/07/28 05:57:59;;;;;;;6.53;2.92;;;;;;;13.37;89.66;101729.81;5255881;28;20449;-67
2022/07/28 06:00:32;;;;;;;9.60;2.65;;;;;;;13.47;87.22;101724.63;5256934;28;21278;-67
2022/07/28 06:03:04;;;;;;;6.78;2.30;;;;;;;13.63;87.01;101721.63;5260212;28;20114;-67
2022/07/28 06:05:36;;;;;;;7.03;2.38;;;;;;;13.81;87.03;101730.13;5255928;28;20036;-67
2022/07/28 06:08:07;;;;;;;8.32;2.55;;;;;;;13.91;85.43;101725.75;5262394;28;20033;-67
2022/07/28 06:13:28;;;;;;;5.93;3.05;;;;;;;14.21;83.83;101727.03;5258858;28;20040;-67
2022/07/28 06:16:00;;;;;;;4.63;2.22;;;;;;;14.30;83.26;101727.19;5257777;28;21410;-67
2022/07/28 06:18:32;;;;;;;7.15;3.13;;;;;;;14.45;84.00;101729.63;5259625;28;20056;-67
2022/07/28 06:21:03;;;;;;;9.13;2.60;;;;;;;14.45;81.01;101721.59;5255253;28;20094;-67
2022/07/28 06:23:34;;;;;;;5.40;2.00;;;;;;;14.58;81.82;101724.19;5262042;28;20543;-67
2022/07/28 06:26:06;;;;;;;7.43;2.17;;;;;;;14.67;81.73;101726.16;5271261;28;20024;-67
2022/07/28 06:28:37;;;;;;;4.55;2.40;;;;;;;14.82;82.38;101719.53;5274641;28;20066;-67
2022/07/28 06:31:08;;;;;;;6.75;2.10;;;;;;;14.94;81.58;101722.19;5266478;28;20477;-67
2022/07/28 06:33:40;;;;;;;6.60;2.20;;;;;;;14.95;82.02;101722.06;5271053;28;20021;-67
2022/07/28 06:36:11;;;;;;;5.07;2.53;;;;;;;15.06;79.77;101719.38;5270524;28;20017;-67
2022/07/28 06:38:42;;;;;;;5.47;2.17;;;;;;;15.20;81.60;101726.28;5262431;28;20032;-67
2022/07/28 06:41:14;;;;;;;7.63;2.25;;;;;;;15.27;77.49;101732.03;5263439;28;20779;-67
2022/07/28 06:43:45;;;;;;;4.75;1.98;;;;;;;15.34;77.43;101735.06;5268539;28;20116;-67
2022/07/28 06:46:18;;;;;;;6.70;2.13;;;;;;;15.29;75.21;101732.75;5259497;28;20293;-67
2022/07/28 06:48:49;;;;;;;7.50;2.30;;;;;;;15.44;76.38;101728.81;5262148;28;20488;-67
2022/07/28 06:51:22;;;;;;;5.35;2.10;;;;;;;15.46;74.15;101728.69;5261462;28;20052;-67
2022/07/28 06:53:54;;;;;;;5.10;2.28;;;;;;;15.51;74.46;101725.59;5269232;28;20024;-67
2022/07/28 06:56:26;;;;;;;5.78;1.95;;;;;;;15.62;76.21;101726.41;5262805;28;20142;-67
2022/07/28 06:58:57;;;;;;;6.88;2.30;;;;;;;15.81;78.10;101730.28;5258281;28;20179;-67
2022/07/28 07:01:28;;;;;;;6.53;2.10;;;;;;;15.85;74.33;101734.41;5266566;28;20371;-68
2022/07/28 07:03:59;;;;;;;5.43;1.80;;;;;;;15.85;73.72;101737.94;5265384;28;20067;-68
2022/07/28 07:06:31;;;;;;;4.93;2.08;;;;;;;16.05;74.19;101728.19;5259135;28;20120;-67
2022/07/28 07:09:02;;;;;;;5.03;2.10;;;;;;;16.10;73.76;101737.72;5261138;28;20024;-67
2022/07/28 07:11:35;;;;;;;4.13;1.80;;;;;;;16.11;72.79;101726.81;5265122;28;20027;-67
2022/07/28 07:14:07;;;;;;;3.92;1.58;;;;;;;16.30;73.21;101726.09;5262765;28;20020;-67
2022/07/28 07:16:38;;;;;;;4.43;1.75;;;;;;;16.32;70.84;101732.19;5268287;28;20028;-67
2022/07/28 07:19:09;;;;;;;5.88;1.80;;;;;;;16.44;70.45;101727.56;5267382;28;20113;-68
2022/07/28 07:21:41;;;;;;;8.98;2.20;;;;;;;16.70;72.58;101729.78;5264119;28;20580;-68
2022/07/28 07:24:12;;;;;;;6.10;1.90;;;;;;;16.78;69.61;101724.56;5266706;28;20021;-68
2022/07/28 07:26:44;;;;;;;7.32;2.00;;;;;;;16.87;70.06;101723.78;5264854;28;20025;-68
2022/07/28 07:29:15;;;;;;;5.03;2.00;;;;;;;17.00;68.53;101735.19;5271655;28;20085;-69
2022/07/28 07:31:46;;;;;;;6.63;1.98;;;;;;;16.98;68.63;101730.91;5258853;28;20034;-70
2022/07/28 07:34:17;;;;;;;6.45;1.88;;;;;;;17.12;67.95;101724.28;5263270;28;20036;-67
2022/07/28 07:36:49;;;;;;;6.55;1.80;;;;;;;17.13;68.56;101734.09;5262749;28;20849;-67
2022/07/28 07:39:20;;;;;;;5.57;1.58;;;;;;;17.16;68.10;101725.72;5265191;28;20021;-67
2022/07/28 07:41:51;;;;;;;6.65;1.60;;;;;;;17.22;66.62;101723.31;5261795;28;20025;-67
2022/07/28 07:44:23;;;;;;;6.07;1.80;;;;;;;17.27;65.77;101720.19;5265861;28;20032;-67
2022/07/28 07:46:54;;;;;;;5.68;1.65;;;;;;;17.46;66.52;101721.22;5259981;28;20713;-67
2022/07/28 07:49:25;;;;;;;5.28;1.70;;;;;;;17.38;65.63;101716.53;5273472;28;20028;-67
2022/07/28 07:51:57;;;;;;;6.30;2.28;;;;;;;17.43;66.57;101714.25;5263442;28;20143;-68
2022/07/28 07:54:28;;;;;;;5.30;1.67;;;;;;;17.43;65.69;101712.41;5257936;28;20032;-67
2022/07/28 07:56:59;;;;;;;6.18;1.80;;;;;;;17.36;66.21;101715.81;5261423;28;20048;-67
2022/07/28 07:59:31;;;;;;;5.32;2.10;;;;;;;17.37;65.78;101714.81;5253786;28;21486;-68
2022/07/28 08:02:02;;;;;;;6.78;2.05;;;;;;;17.40;65.71;101720.78;5259230;28;20083;-67
2022/07/28 08:04:34;;;;;;;5.47;1.75;;;;;;;17.45;66.54;101712.28;5256278;28;20028;-68
2022/07/28 08:07:05;;;;;;;5.25;1.88;;;;;;;17.52;65.69;101707.16;5260820;28;20445;-67
2022/07/28 08:09:36;;;;;;;4.00;1.40;;;;;;;17.57;66.69;101705.72;5256655;28;20106;-67
2022/07/28 08:12:08;;;;;;;4.78;1.40;;;;;;;17.55;63.95;101706.88;5259636;28;20053;-68
2022/07/28 08:14:39;;;;;;;4.18;1.58;;;;;;;17.67;65.77;101713.81;5262437;28;20036;-68
2022/07/28 08:17:10;;;;;;;6.40;2.00;;;;;;;17.59;64.88;101708.28;5267775;28;20028;-68
2022/07/28 08:19:41;;;;;;;4.85;1.40;;;;;;;17.56;63.43;101709.41;5266776;28;20033;-67
2022/07/28 08:22:14;;;;;;;6.50;1.63;;;;;;;17.58;63.57;101701.19;5269567;28;20089;-67
2022/07/28 08:24:45;;;;;;;5.03;1.40;;;;;;;17.72;64.32;101706.16;5261912;28;20356;-67
2022/07/28 08:27:17;;;;;;;6.47;1.65;;;;;;;17.70;65.38;101704.59;5262667;28;20090;-68
2022/07/28 08:29:48;;;;;;;4.95;1.55;;;;;;;17.71;63.32;101704.44;5263071;28;20121;-68
2022/07/28 08:32:20;;;;;;;6.25;1.60;;;;;;;17.83;64.40;101706.00;5266131;28;20037;-68
2022/07/28 08:34:53;;;;;;;4.15;1.48;;;;;;;17.86;64.57;101704.91;5262647;28;20033;-67
2022/07/28 08:37:24;;;;;;;4.20;1.40;;;;;;;18.00;64.83;101706.28;5257179;28;20029;-67
2022/07/28 08:39:55;;;;;;;8.35;1.52;;;;;;;18.13;63.39;101712.22;5257358;28;21808;-68
2022/07/28 08:42:45;;;;;;;6.75;1.60;;;;;;;18.10;63.01;101703.56;5266756;28;20047;-68
2022/07/28 08:45:18;;;;;;;5.63;1.38;;;;;;;18.13;62.51;101706.84;5254379;28;20032;-67
2022/07/28 08:47:50;;;;;;;7.85;1.88;;;;;;;18.03;61.66;101698.75;5256776;28;20036;-67
2022/07/28 08:50:23;;;;;;;6.80;1.63;;;;;;;18.36;62.27;101710.03;5259782;28;20052;-67
2022/07/28 08:52:55;;;;;;;4.18;1.52;;;;;;;18.38;61.72;101704.50;5261415;28;21017;-68
2022/07/28 08:55:27;;;;;;;4.95;1.60;;;;;;;18.33;62.65;101706.78;5261212;28;20040;-67
2022/07/28 08:57:59;;;;;;;4.15;1.13;;;;;;;18.53;62.47;101694.91;5261361;28;20094;-67
2022/07/28 09:00:30;;;;;;;6.43;1.80;;;;;;;18.68;62.75;101697.97;5261831;28;21263;-67
2022/07/28 09:03:03;;;;;;;8.70;1.92;;;;;;;18.69;61.01;101698.81;5266982;28;21201;-67
2022/07/28 09:05:35;;;;;;;5.05;1.50;;;;;;;18.85;60.60;101695.47;5256070;28;20032;-68
2022/07/28 09:08:06;;;;;;;5.13;1.35;;;;;;;18.84;61.28;101694.63;5256637;28;20483;-67
2022/07/28 09:10:38;;;;;;;8.32;1.65;;;;;;;18.86;59.52;101683.69;5261109;28;20032;-67
2022/07/28 09:13:09;;;;;;;5.95;1.90;;;;;;;18.68;58.39;101672.78;5260150;28;20047;-68
2022/07/28 09:15:40;;;;;;;5.78;1.67;;;;;;;18.93;60.06;101672.09;5267612;28;20032;-68
2022/07/28 09:18:16;;;;;;;5.28;1.63;;;;;;;19.00;59.50;101669.63;5260625;28;20167;-67
2022/07/28 09:20:47;;;;;;;6.20;1.52;;;;;;;19.19;60.19;101666.81;5266879;28;20034;-67
2022/07/28 09:23:18;;;;;;;7.22;1.80;;;;;;;19.11;59.01;101663.16;5265585;28;20447;-67
2022/07/28 09:25:50;;;;;;;4.78;1.90;;;;;;;19.15;59.90;101668.09;5267048;28;20126;-67
2022/07/28 09:28:22;;;;;;;5.40;1.70;;;;;;;19.38;59.81;101665.78;5271949;28;20433;-68
2022/07/28 09:30:53;;;;;;;5.50;1.58;;;;;;;19.44;58.35;101658.06;5264573;28;20490;-67
2022/07/28 09:33:31;;;;;;;5.68;1.50;;;;;;;19.58;58.19;101649.41;5267316;28;20037;-68
2022/07/28 09:36:03;;;;;;;6.15;1.50;;;;;;;19.51;58.81;101638.31;5265901;28;20036;-67
2022/07/28 09:38:39;;;;;;;4.50;1.20;;;;;;;19.68;58.93;101631.19;5262202;28;20528;-66
2022/07/28 09:41:11;;;;;;;3.63;1.30;;;;;;;19.77;59.25;101630.28;5263494;28;20133;-67
2022/07/28 09:43:44;;;;;;;3.85;1.38;;;;;;;19.80;58.37;101620.13;5264332;28;20033;-68
2022/07/28 09:46:18;;;;;;;5.55;1.20;;;;;;;19.95;57.98;101635.63;5273123;28;20538;-67
2022/07/28 09:48:52;;;;;;;3.90;1.45;;;;;;;19.91;56.96;101634.25;5271119;28;20020;-67
2022/07/28 09:51:27;;;;;;;6.43;2.33;;;;;;;20.09;56.15;101636.88;5272144;28;20024;-67
2022/07/28 09:54:10;;;;;;;3.80;1.13;;;;;;;20.11;56.87;101645.69;5268158;28;20035;-67
2022/07/28 09:56:43;;;;;;;5.78;1.52;;;;;;;20.18;56.06;101633.22;5269993;28;20024;-67
2022/07/28 09:59:16;;;;;;;5.68;1.20;;;;;;;20.31;56.74;101630.06;5270321;28;20033;-67
2022/07/28 10:01:57;;;;;;;5.63;1.40;;;;;;;20.46;58.01;101634.88;5267182;28;20028;-68
2022/07/28 10:04:36;;;;;;;5.80;1.38;;;;;;;20.50;53.36;101634.41;5264850;28;20016;-68
2022/07/28 10:07:13;;;;;;;6.25;1.45;;;;;;;20.53;52.99;101634.06;5271917;28;20032;-67
2022/07/28 10:09:56;;;;;;;6.30;1.70;;;;;;;20.39;53.62;101631.13;5267085;28;20111;-68
2022/07/28 10:12:30;;;;;;;3.45;1.33;;;;;;;20.25;52.71;101632.56;5261692;28;20058;-67
2022/07/28 10:18:07;;;;;;;4.63;1.20;;;;;;;20.30;51.65;101633.78;5269033;28;20097;-68
2022/07/28 10:20:38;;;;;;;3.67;1.30;;;;;;;20.28;51.31;101629.53;5270999;28;20036;-67
2022/07/28 10:23:11;;;;;;;5.50;1.30;;;;;;;20.19;51.89;101628.63;5269541;28;20140;-67
2022/07/28 10:25:44;;;;;;;6.53;1.42;;;;;;;20.36;54.07;101624.16;5263346;28;20068;-67
2022/07/28 10:28:18;;;;;;;5.82;1.10;;;;;;;20.61;51.76;101618.88;5267133;28;20036;-67
2022/07/28 10:30:54;;;;;;;4.95;1.30;;;;;;;20.69;52.09;101633.31;5273404;28;20043;-67
2022/07/28 10:33:29;;;;;;;4.20;1.23;;;;;;;20.70;50.59;101628.72;5269470;28;20029;-67
2022/07/28 10:36:01;;;;;;;3.08;1.10;;;;;;;20.80;52.16;101615.03;5269385;28;20025;-67
2022/07/28 10:38:34;;;;;;;7.60;1.42;;;;;;;20.93;51.41;101624.38;5267212;28;20705;-67
2022/07/28 10:41:07;;;;;;;6.18;1.35;;;;;;;20.98;52.00;101623.88;5268610;28;20197;-67
2022/07/28 10:43:40;;;;;;;3.50;1.30;;;;;;;20.95;50.96;101622.34;5262813;28;20042;-67
2022/07/28 10:46:12;;;;;;;4.97;1.27;;;;;;;21.09;49.65;101622.69;5267955;28;20025;-67
2022/07/28 10:48:44;;;;;;;4.53;1.30;;;;;;;21.07;50.00;101619.31;5267687;28;20375;-68
2022/07/28 10:51:15;;;;;;;4.25;1.30;;;;;;;21.16;49.35;101618.31;5265873;28;20114;-68
2022/07/28 10:54:15;;;;;;;3.25;1.00;;;;;;;21.23;52.09;101613.03;5258801;28;20024;-67
2022/07/28 10:56:55;;;;;;;5.93;1.20;;;;;;;21.37;53.58;101614.25;5263541;28;20094;-68
2022/07/28 10:59:32;;;;;;;5.57;1.40;;;;;;;21.39;50.73;101617.66;5255049;28;20033;-67
2022/07/28 11:02:04;;;;;;;4.25;0.90;;;;;;;21.47;48.52;101612.22;5267462;28;20032;-67
2022/07/28 11:04:47;;;;;;;4.35;1.20;;;;;;;21.50;48.35;101601.03;5270598;28;20024;-67
2022/07/28 11:07:19;;;;;;;5.07;1.27;;;;;;;21.51;50.41;101605.44;5266406;28;20040;-67
2022/07/28 11:09:52;;;;;;;2.90;1.10;;;;;;;21.48;49.20;101606.63;5274247;28;20799;-67
2022/07/28 11:12:50;;;;;;;4.03;1.20;;;;;;;21.54;49.63;101605.13;5265743;28;20104;-67
2022/07/28 11:15:28;;;;;;;4.15;1.30;;;;;;;21.58;48.18;101603.75;5267240;28;20070;-67
2022/07/28 11:18:04;;;;;;;5.60;1.52;;;;;;;21.68;46.50;101589.97;5268556;28;20024;-68
2022/07/28 11:20:51;;;;;;;4.53;1.13;;;;;;;21.68;49.79;101585.38;5263526;28;20116;-67
2022/07/28 11:23:48;;;;;;;5.15;1.13;;;;;;;21.73;48.33;101585.72;5259926;28;20039;-67
2022/07/28 11:26:22;;;;;;;4.50;0.98;;;;;;;21.81;49.20;101575.88;5256347;28;20152;-67
2022/07/28 11:28:57;;;;;;;5.93;1.20;;;;;;;21.79;46.22;101580.63;5258566;28;20521;-67
2022/07/28 11:31:46;;;;;;;5.30;0.98;;;;;;;21.89;49.22;101584.84;5257615;28;20081;-67
2022/07/28 11:34:20;;;;;;;4.32;1.17;;;;;;;21.86;47.12;101590.63;5259701;28;20035;-68
2022/07/28 11:37:02;;;;;;;4.53;1.33;;;;;;;21.92;47.11;101584.50;5255028;28;20025;-68
2022/07/28 11:39:36;;;;;;;6.18;1.17;;;;;;;22.25;49.01;101589.84;5268024;28;20024;-69
2022/07/28 11:42:33;;;;;;;6.85;1.15;;;;;;;22.05;47.93;101580.38;5269996;28;20401;-70
2022/07/28 11:45:24;;;;;;;3.50;1.08;;;;;;;21.95;47.73;101575.13;5267503;28;20021;-67
2022/07/28 11:48:14;;;;;;;4.55;1.27;;;;;;;21.91;46.77;101569.19;5266153;28;20390;-68
2022/07/28 11:51:04;;;;;;;6.30;1.20;;;;;;;21.77;47.35;101560.94;5262859;28;20020;-67
2022/07/28 11:53:39;;;;;;;6.38;1.00;;;;;;;21.81;46.75;101557.69;5266405;28;20108;-67
2022/07/28 11:56:21;;;;;;;10.35;1.73;;;;;;;21.95;47.02;101566.97;5264958;28;20390;-67
2022/07/28 11:59:00;;;;;;;6.13;1.23;;;;;;;22.16;46.63;101562.84;5266438;28;20053;-67
2022/07/28 12:01:34;;;;;;;5.78;1.00;;;;;;;22.17;47.20;101561.81;5266083;28;20032;-67
2022/07/28 12:04:14;;;;;;;3.95;1.08;;;;;;;22.18;46.75;101567.06;5265941;28;20056;-67